createdAt,value
2023-03-15T00:01:14.818Z,100219.38
2023-03-15T00:03:42.002Z,100215.75
2023-03-15T00:06:08.682Z,100227.63
2023-03-15T00:08:35.197Z,100226.56
2023-03-15T00:11:01.991Z,100229.78
2023-03-15T00:13:28.491Z,100237.50
2023-03-15T00:15:58.647Z,100239.16
2023-03-15T00:18:26.089Z,100230.59
2023-03-15T00:20:52.932Z,100234.66
2023-03-15T00:23:19.463Z,100238.91
2023-03-15T00:25:47.322Z,100241.38
2023-03-15T00:28:14.468Z,100247.13
2023-03-15T00:30:40.966Z,100240.91
2023-03-15T00:33:07.443Z,100255.31
2023-03-15T00:35:34.333Z,100256.91
2023-03-15T00:38:00.823Z,100260.19
2023-03-15T00:40:27.613Z,100267.00
2023-03-15T00:42:54.074Z,100260.91
2023-03-15T00:45:21.707Z,100269.16
2023-03-15T00:47:52.343Z,100273.41
2023-03-15T00:50:19.604Z,100272.34
2023-03-15T00:52:46.170Z,100285.16
2023-03-15T00:55:16.048Z,100279.06
2023-03-15T00:57:43.670Z,100278.34
2023-03-15T01:00:16.759Z,100279.22
2023-03-15T01:02:43.383Z,100283.47
2023-03-15T01:05:10.491Z,100283.38
2023-03-15T01:07:37.337Z,100280.81
2023-03-15T01:10:05.405Z,100292.03
2023-03-15T01:12:33.069Z,100289.66
2023-03-15T01:15:00.686Z,100296.38
2023-03-15T01:17:27.179Z,100285.94
2023-03-15T01:19:53.656Z,100300.44
2023-03-15T01:22:20.614Z,100300.34
2023-03-15T01:24:47.100Z,100296.91
2023-03-15T01:27:13.695Z,100294.34
2023-03-15T01:29:40.193Z,100290.97
2023-03-15T01:32:07.135Z,100294.44
2023-03-15T01:34:34.415Z,100296.91
2023-03-15T01:37:01.064Z,100295.22
2023-03-15T01:39:27.557Z,100301.94
2023-03-15T01:41:54.042Z,100305.28
2023-03-15T01:44:21.107Z,100308.66
2023-03-15T01:46:47.685Z,100305.38
2023-03-15T01:49:18.066Z,100309.41
2023-03-15T01:52:01.596Z,100321.22
2023-03-15T01:54:34.665Z,100322.22
2023-03-15T01:57:04.801Z,100323.63
2023-03-15T01:59:33.803Z,100316.91
2023-03-15T02:02:00.994Z,100323.72
2023-03-15T02:04:39.799Z,100324.59
2023-03-15T02:07:07.419Z,100326.34
2023-03-15T02:10:00.214Z,100332.09
2023-03-15T02:12:28.093Z,100327.16
2023-03-15T02:14:54.926Z,100333.06
2023-03-15T02:17:28.361Z,100338.19
2023-03-15T02:20:27.382Z,100327.84
2023-03-15T02:22:57.053Z,100333.69
2023-03-15T02:25:30.699Z,100337.03
2023-03-15T02:27:57.601Z,100339.59
2023-03-15T02:30:24.246Z,100337.03
2023-03-15T02:32:50.862Z,100340.47
2023-03-15T02:35:30.031Z,100352.22
2023-03-15T02:37:56.537Z,100345.28
2023-03-15T02:40:27.780Z,100345.19
2023-03-15T02:42:57.931Z,100339.97
2023-03-15T02:45:25.581Z,100341.75
2023-03-15T02:47:52.144Z,100347.56
2023-03-15T02:50:18.813Z,100345.91
2023-03-15T02:52:45.490Z,100344.22
2023-03-15T02:55:12.104Z,100350.03
2023-03-15T02:57:39.033Z,100346.50
2023-03-15T03:00:14.352Z,100350.75
2023-03-15T03:02:41.870Z,100344.56
2023-03-15T03:05:08.842Z,100355.69
2023-03-15T03:07:35.481Z,100359.69
2023-03-15T03:10:02.390Z,100364.81
2023-03-15T03:12:28.845Z,100360.59
2023-03-15T03:14:56.700Z,100367.47
2023-03-15T03:17:23.735Z,100366.59
2023-03-15T03:19:51.714Z,100373.38
2023-03-15T03:22:18.205Z,100366.41
2023-03-15T03:24:46.059Z,100366.41
2023-03-15T03:27:17.417Z,100372.22
2023-03-15T03:29:43.990Z,100378.91
2023-03-15T03:32:10.618Z,100389.16
2023-03-15T03:34:37.198Z,100391.63
2023-03-15T03:37:03.902Z,100393.22
2023-03-15T03:39:30.898Z,100399.00
2023-03-15T03:41:57.382Z,100394.75
2023-03-15T03:44:23.831Z,100402.44
2023-03-15T03:46:50.322Z,100406.78
2023-03-15T03:49:16.826Z,100411.13
2023-03-15T03:51:43.307Z,100408.34
2023-03-15T03:54:09.818Z,100412.00
2023-03-15T03:56:36.301Z,100425.00
2023-03-15T03:59:02.781Z,100422.63
2023-03-15T04:01:29.240Z,100425.38
2023-03-15T04:03:55.710Z,100438.19
2023-03-15T04:06:22.618Z,100443.19
2023-03-15T04:08:49.228Z,100439.84
2023-03-15T04:11:17.588Z,100438.97
2023-03-15T04:13:45.425Z,100434.81
2023-03-15T04:16:12.772Z,100442.91
2023-03-15T04:18:40.276Z,100444.78
2023-03-15T04:21:10.720Z,100438.88
2023-03-15T04:23:38.190Z,100448.63
2023-03-15T04:26:07.961Z,100447.94
2023-03-15T04:28:34.528Z,100452.38
2023-03-15T04:31:01.004Z,100452.38
2023-03-15T04:33:28.280Z,100462.88
2023-03-15T04:35:54.784Z,100464.66
2023-03-15T04:38:27.042Z,100467.22
2023-03-15T04:40:54.850Z,100469.00
2023-03-15T04:43:22.246Z,100474.22
2023-03-15T04:45:48.720Z,100472.56
2023-03-15T04:48:15.177Z,100476.78
2023-03-15T04:50:41.652Z,100471.66
2023-03-15T04:53:08.133Z,100475.22
2023-03-15T04:55:34.573Z,100484.69
2023-03-15T04:58:01.021Z,100482.91
2023-03-15T05:00:27.579Z,100478.56
2023-03-15T05:02:55.207Z,100493.25
2023-03-15T05:05:23.794Z,100493.34
2023-03-15T05:07:50.508Z,100491.66
2023-03-15T05:10:17.475Z,100503.88
2023-03-15T05:12:43.970Z,100501.41
2023-03-15T05:15:10.879Z,100511.66
2023-03-15T05:17:37.412Z,100503.97
2023-03-15T05:20:11.814Z,100519.44
2023-03-15T05:22:39.291Z,100523.56
2023-03-15T05:25:06.281Z,100522.59
2023-03-15T05:27:34.026Z,100520.91
2023-03-15T05:30:03.924Z,100526.91
2023-03-15T05:32:34.331Z,100530.38
2023-03-15T05:35:01.724Z,100533.03
2023-03-15T05:37:28.234Z,100535.59
2023-03-15T05:39:54.727Z,100545.75
2023-03-15T05:42:25.320Z,100550.88
2023-03-15T05:44:52.915Z,100556.97
2023-03-15T05:47:19.728Z,100562.97
2023-03-15T05:49:46.733Z,100568.88
2023-03-15T05:52:13.202Z,100576.66
2023-03-15T05:54:39.807Z,100585.25
2023-03-15T05:57:06.517Z,100595.72
2023-03-15T05:59:33.412Z,100592.16
2023-03-15T06:01:59.881Z,100605.88
2023-03-15T06:04:26.375Z,100605.97
2023-03-15T06:06:53.305Z,100607.94
2023-03-15T06:09:19.896Z,100610.59
2023-03-15T06:11:46.375Z,100621.81
2023-03-15T06:14:12.852Z,100625.25
2023-03-15T06:16:39.404Z,100626.25
2023-03-15T06:19:05.922Z,100625.50
2023-03-15T06:21:32.410Z,100626.47
2023-03-15T06:23:58.939Z,100626.66
2023-03-15T06:26:25.513Z,100638.88
2023-03-15T06:28:51.986Z,100642.66
2023-03-15T06:31:18.526Z,100636.31
2023-03-15T06:33:45.149Z,100640.09
2023-03-15T06:36:11.926Z,100644.63
2023-03-15T06:38:38.473Z,100643.91
2023-03-15T06:41:05.240Z,100653.47
2023-03-15T06:43:31.913Z,100664.72
2023-03-15T06:46:00.091Z,100666.72
2023-03-15T06:48:28.052Z,100666.09
2023-03-15T06:50:54.592Z,100675.75
2023-03-15T06:53:21.041Z,100673.19
2023-03-15T06:55:48.070Z,100680.00
2023-03-15T06:58:14.519Z,100674.06
2023-03-15T07:00:41.547Z,100679.31
2023-03-15T07:03:08.092Z,100682.97
2023-03-15T07:05:34.550Z,100692.53
2023-03-15T07:08:00.985Z,100690.75
2023-03-15T07:10:27.393Z,100691.75
2023-03-15T07:12:53.803Z,100700.50
2023-03-15T07:15:20.261Z,100696.38
2023-03-15T07:17:46.706Z,100699.91
2023-03-15T07:20:13.115Z,100697.47
2023-03-15T07:22:39.530Z,100704.56
2023-03-15T07:25:07.425Z,100708.19
2023-03-15T07:27:34.011Z,100712.84
2023-03-15T07:30:01.077Z,100712.25
2023-03-15T07:32:27.609Z,100715.97
2023-03-15T07:34:58.126Z,100722.31
2023-03-15T07:37:24.562Z,100730.19
2023-03-15T07:39:50.974Z,100733.91
2023-03-15T07:42:17.423Z,100735.13
2023-03-15T07:44:43.916Z,100729.47
2023-03-15T07:47:10.759Z,100739.91
2023-03-15T07:49:37.243Z,100745.44
2023-03-15T07:52:03.838Z,100749.88
2023-03-15T07:54:31.694Z,100745.81
2023-03-15T07:56:58.091Z,100750.44
2023-03-15T07:59:24.538Z,100754.19
2023-03-15T08:01:51.380Z,100758.88
2023-03-15T08:04:17.910Z,100768.50
2023-03-15T08:06:44.595Z,100770.63
2023-03-15T08:09:12.027Z,100763.00
2023-03-15T08:11:38.455Z,100770.09
2023-03-15T08:14:04.872Z,100769.59
2023-03-15T08:16:31.383Z,100780.88
2023-03-15T08:18:57.840Z,100777.72
2023-03-15T08:21:24.245Z,100779.66
2023-03-15T08:23:50.653Z,100784.81
2023-03-15T08:26:17.206Z,100782.16
2023-03-15T08:28:43.654Z,100775.56
2023-03-15T08:31:10.196Z,100784.63
2023-03-15T08:33:36.691Z,100794.13
2023-03-15T08:36:03.305Z,100794.13
2023-03-15T08:38:29.765Z,100799.00
2023-03-15T08:40:57.266Z,100813.38
2023-03-15T08:43:23.701Z,100818.53
2023-03-15T08:46:00.586Z,100818.34
2023-03-15T08:48:27.752Z,100820.28
2023-03-15T08:50:54.200Z,100814.09
2023-03-15T08:53:20.896Z,100813.91
2023-03-15T08:55:48.798Z,100818.38
2023-03-15T08:58:15.212Z,100819.25
2023-03-15T09:00:41.659Z,100821.63
2023-03-15T09:03:08.681Z,100826.72
2023-03-15T09:05:36.018Z,100832.22
2023-03-15T09:08:02.465Z,100830.47
2023-03-15T09:10:28.870Z,100831.28
2023-03-15T09:12:55.543Z,100846.38
2023-03-15T09:15:22.102Z,100848.34
2023-03-15T09:17:50.913Z,100860.56
2023-03-15T09:20:19.070Z,100867.13
2023-03-15T09:22:52.042Z,100864.06
2023-03-15T09:25:18.933Z,100866.69
2023-03-15T09:27:45.729Z,100855.56
2023-03-15T09:30:13.476Z,100854.78
2023-03-15T09:32:40.109Z,100854.53
2023-03-15T09:35:08.835Z,100862.47
2023-03-15T09:37:35.254Z,100875.19
2023-03-15T09:40:02.134Z,100876.16
2023-03-15T09:42:53.175Z,100872.97
2023-03-15T09:45:56.613Z,100875.13
2023-03-15T09:48:33.330Z,100880.59
2023-03-15T09:51:07.937Z,100893.09
2023-03-15T09:53:46.739Z,100885.03
2023-03-15T09:56:29.033Z,100899.00
2023-03-15T09:58:58.606Z,100895.72
2023-03-15T10:01:34.955Z,100902.59
2023-03-15T10:04:28.238Z,100913.97
2023-03-15T10:06:57.264Z,100914.06
2023-03-15T10:09:26.959Z,100910.72
2023-03-15T10:12:07.078Z,100904.25
2023-03-15T10:14:46.914Z,100906.22
2023-03-15T10:17:16.401Z,100910.31
2023-03-15T10:19:50.285Z,100907.72
2023-03-15T10:22:30.018Z,100903.88
2023-03-15T10:25:00.477Z,100909.69
2023-03-15T10:27:36.926Z,100912.16
2023-03-15T10:30:15.623Z,100916.13
2023-03-15T10:32:43.737Z,100914.19
2023-03-15T10:35:18.054Z,100904.44
2023-03-15T10:37:44.946Z,100906.59
2023-03-15T10:40:16.020Z,100908.84
2023-03-15T10:42:44.588Z,100912.59
2023-03-15T10:45:23.099Z,100909.50
2023-03-15T10:47:59.431Z,100914.75
2023-03-15T10:50:30.083Z,100907.72
2023-03-15T10:52:58.127Z,100909.25
2023-03-15T10:55:33.139Z,100917.69
2023-03-15T10:58:13.405Z,100915.75
2023-03-15T11:00:49.478Z,100914.06
2023-03-15T11:03:18.695Z,100917.06
2023-03-15T11:05:49.027Z,100923.31
2023-03-15T11:08:18.486Z,100932.72
2023-03-15T11:10:46.446Z,100930.81
2023-03-15T11:13:23.331Z,100928.84
2023-03-15T11:16:04.917Z,100944.19
2023-03-15T11:18:38.165Z,100938.72
2023-03-15T11:21:10.546Z,100930.56
2023-03-15T11:23:38.962Z,100931.38
2023-03-15T11:26:06.234Z,100921.28
2023-03-15T11:28:35.720Z,100917.00
2023-03-15T11:31:04.618Z,100923.22
2023-03-15T11:34:03.642Z,100933.16
2023-03-15T11:36:32.386Z,100940.25
2023-03-15T11:39:02.930Z,100928.41
2023-03-15T11:41:43.810Z,100925.91
2023-03-15T11:44:12.749Z,100922.56
2023-03-15T11:46:50.777Z,100935.63
2023-03-15T11:49:35.266Z,100927.91
2023-03-15T11:52:02.194Z,100925.00
2023-03-15T11:54:30.237Z,100929.19
2023-03-15T11:57:17.977Z,100929.63
2023-03-15T11:59:45.870Z,100927.28
2023-03-15T12:02:13.989Z,100928.22
2023-03-15T12:04:46.084Z,100919.78
2023-03-15T12:07:24.608Z,100920.09
2023-03-15T12:09:56.270Z,100914.53
2023-03-15T12:12:25.801Z,100918.88
2023-03-15T12:15:14.318Z,100920.34
2023-03-15T12:17:50.531Z,100922.53
2023-03-15T12:20:19.765Z,100923.78
2023-03-15T12:22:51.994Z,100929.38
2023-03-15T12:25:48.861Z,100932.63
2023-03-15T12:28:31.545Z,100935.63
2023-03-15T12:31:01.764Z,100946.94
2023-03-15T12:33:30.177Z,100963.16
2023-03-15T12:36:08.360Z,100980.25
2023-03-15T12:38:41.820Z,100988.41
2023-03-15T12:41:10.066Z,100999.88
2023-03-15T12:43:44.477Z,101010.78
2023-03-15T12:46:46.096Z,101003.69
2023-03-15T12:49:14.870Z,101002.25
2023-03-15T12:51:44.865Z,101005.72
2023-03-15T12:54:14.110Z,101008.94
2023-03-15T12:56:43.189Z,101006.06
2023-03-15T12:59:17.901Z,101018.75
2023-03-15T13:01:45.228Z,101009.69
2023-03-15T13:04:12.780Z,101015.06
2023-03-15T13:06:52.983Z,101015.06
2023-03-15T13:09:49.374Z,101012.75
2023-03-15T13:12:31.618Z,101008.25
2023-03-15T13:15:02.093Z,101009.31
2023-03-15T13:17:38.084Z,101007.59
2023-03-15T13:20:28.222Z,101017.47
2023-03-15T13:23:03.647Z,101012.19
2023-03-15T13:25:34.335Z,100999.94
2023-03-15T13:28:37.087Z,101003.56
2023-03-15T13:31:20.486Z,101006.09
2023-03-15T13:33:48.524Z,101003.59
2023-03-15T13:36:23.488Z,101003.22
2023-03-15T13:38:51.621Z,100997.06
2023-03-15T13:41:24.661Z,100993.66
2023-03-15T13:43:53.113Z,101006.38
2023-03-15T13:46:24.457Z,100992.91
2023-03-15T13:48:52.262Z,100991.59
2023-03-15T13:51:22.576Z,100991.25
2023-03-15T13:53:51.726Z,100996.78
2023-03-15T13:56:20.428Z,100994.56
2023-03-15T13:58:47.634Z,100999.41
2023-03-15T14:01:15.063Z,100996.75
2023-03-15T14:03:43.921Z,100998.25
2023-03-15T14:06:13.726Z,100993.41
2023-03-15T14:08:40.579Z,100993.72
2023-03-15T14:11:12.148Z,100981.72
2023-03-15T14:13:51.964Z,100991.38
2023-03-15T14:17:03.517Z,100989.78
2023-03-15T14:19:31.782Z,100992.75
2023-03-15T14:22:03.641Z,101008.44
2023-03-15T14:24:34.555Z,101010.66
2023-03-15T14:27:04.817Z,101003.56
2023-03-15T14:29:39.163Z,100997.44
2023-03-15T14:32:23.644Z,101004.31
2023-03-15T14:34:50.143Z,101002.78
2023-03-15T14:37:30.438Z,101004.91
2023-03-15T14:40:14.990Z,101014.06
2023-03-15T14:42:42.773Z,101004.13
2023-03-15T14:45:09.718Z,101012.56
2023-03-15T14:47:55.107Z,101036.25
2023-03-15T14:50:23.803Z,101031.53
2023-03-15T14:52:51.298Z,101059.38
2023-03-15T14:55:29.248Z,101063.81
2023-03-15T14:57:55.682Z,101056.69
2023-03-15T15:00:22.364Z,101073.41
2023-03-15T15:02:51.785Z,101080.16
2023-03-15T15:05:23.539Z,101077.88
2023-03-15T15:07:54.574Z,101065.88
2023-03-15T15:10:22.567Z,101075.84
2023-03-15T15:12:56.377Z,101078.34
2023-03-15T15:15:33.586Z,101080.75
2023-03-15T15:18:01.822Z,101076.56
2023-03-15T15:20:28.241Z,101085.28
2023-03-15T15:22:54.680Z,101083.16
2023-03-15T15:25:24.077Z,101087.69
2023-03-15T15:27:50.747Z,101086.09
2023-03-15T15:30:20.774Z,101079.47
2023-03-15T15:32:47.484Z,101089.00
2023-03-15T15:35:16.686Z,101092.22
2023-03-15T15:37:44.783Z,101102.66
2023-03-15T15:40:20.358Z,101095.25
2023-03-15T15:42:47.081Z,101104.84
2023-03-15T15:45:15.603Z,101102.28
2023-03-15T15:47:42.437Z,101104.84
2023-03-15T15:50:13.888Z,101108.88
2023-03-15T15:52:42.048Z,101112.50
2023-03-15T15:55:13.951Z,101117.25
2023-03-15T15:57:40.939Z,101115.56
2023-03-15T16:00:09.240Z,101124.09
2023-03-15T16:02:35.711Z,101123.53
2023-03-15T16:05:02.184Z,101129.75
2023-03-15T16:07:29.035Z,101131.81
2023-03-15T16:09:56.516Z,101126.75
2023-03-15T16:12:24.284Z,101135.38
2023-03-15T16:14:50.794Z,101127.09
2023-03-15T16:17:21.462Z,101135.09
2023-03-15T16:19:51.806Z,101140.09
2023-03-15T16:22:20.282Z,101140.69
2023-03-15T16:24:50.778Z,101138.28
2023-03-15T16:27:18.556Z,101146.16
2023-03-15T16:29:47.475Z,101157.88
2023-03-15T16:32:26.721Z,101151.56
2023-03-15T16:35:00.934Z,101152.88
2023-03-15T16:37:30.874Z,101157.16
2023-03-15T16:40:00.051Z,101159.47
2023-03-15T16:42:26.516Z,101158.44
2023-03-15T16:44:59.503Z,101170.34
2023-03-15T16:47:25.958Z,101171.91
2023-03-15T16:49:52.430Z,101174.25
2023-03-15T16:52:18.832Z,101180.81
2023-03-15T16:54:47.566Z,101185.59
2023-03-15T16:57:19.200Z,101192.00
2023-03-15T16:59:45.672Z,101196.06
2023-03-15T17:02:26.249Z,101196.59
2023-03-15T17:04:52.893Z,101209.38
2023-03-15T17:07:24.730Z,101212.38
2023-03-15T17:09:52.215Z,101211.31
2023-03-15T17:12:24.930Z,101216.09
2023-03-15T17:14:52.633Z,101218.38
2023-03-15T17:17:19.053Z,101221.19
2023-03-15T17:19:45.648Z,101233.78
2023-03-15T17:22:12.166Z,101231.00
2023-03-15T17:24:38.706Z,101241.84
2023-03-15T17:27:05.208Z,101245.78
2023-03-15T17:29:31.668Z,101251.44
2023-03-15T17:31:58.200Z,101251.13
2023-03-15T17:34:24.825Z,101265.41
2023-03-15T17:36:51.239Z,101267.69
2023-03-15T17:39:17.672Z,101267.28
2023-03-15T17:41:46.791Z,101271.88
2023-03-15T17:44:13.428Z,101271.44
2023-03-15T17:46:39.935Z,101273.63
2023-03-15T17:49:08.917Z,101281.16
2023-03-15T17:51:36.681Z,101281.63
2023-03-15T17:54:12.161Z,101276.19
2023-03-15T17:56:38.590Z,101280.81
2023-03-15T17:59:05.136Z,101273.50
2023-03-15T18:01:41.162Z,101279.06
2023-03-15T18:04:12.236Z,101290.53
2023-03-15T18:06:39.249Z,101286.75
2023-03-15T18:09:05.695Z,101289.72
2023-03-15T18:11:35.718Z,101294.66
2023-03-15T18:14:05.110Z,101293.41
2023-03-15T18:16:32.069Z,101282.84
2023-03-15T18:18:58.542Z,101298.75
2023-03-15T18:21:26.864Z,101296.72
2023-03-15T18:23:54.115Z,101302.56
2023-03-15T18:26:20.920Z,101299.88
2023-03-15T18:28:48.945Z,101305.59
2023-03-15T18:31:20.742Z,101300.91
2023-03-15T18:33:47.380Z,101310.00
2023-03-15T18:36:13.829Z,101307.88
2023-03-15T18:38:40.832Z,101312.69
2023-03-15T18:41:24.788Z,101314.16
2023-03-15T18:43:51.594Z,101313.94
2023-03-15T18:46:19.681Z,101308.25
2023-03-15T18:48:46.992Z,101314.97
2023-03-15T18:53:44.641Z,101323.25
2023-03-15T18:56:20.044Z,101325.47
2023-03-15T18:58:47.860Z,101328.50
2023-03-15T19:01:15.858Z,101330.59
2023-03-15T19:03:42.655Z,101325.25
2023-03-15T19:06:11.720Z,101325.72
2023-03-15T19:08:38.448Z,101332.97
2023-03-15T19:11:05.999Z,101337.00
2023-03-15T19:13:32.457Z,101329.06
2023-03-15T19:15:58.879Z,101333.88
2023-03-15T19:18:25.699Z,101335.09
2023-03-15T19:20:52.807Z,101338.53
2023-03-15T19:23:20.259Z,101335.19
2023-03-15T19:25:47.507Z,101329.75
2023-03-15T19:28:14.187Z,101335.66
2023-03-15T19:30:41.486Z,101335.19
2023-03-15T19:33:08.269Z,101338.53
2023-03-15T19:35:34.830Z,101352.03
2023-03-15T19:38:01.429Z,101344.22
2023-03-15T19:40:27.903Z,101348.47
2023-03-15T19:42:54.329Z,101350.03
2023-03-15T19:45:20.853Z,101350.69
2023-03-15T19:47:47.283Z,101361.38
2023-03-15T19:50:14.537Z,101360.03
2023-03-15T19:52:46.055Z,101364.28
2023-03-15T19:55:14.229Z,101364.69
2023-03-15T19:57:40.756Z,101368.94
2023-03-15T20:00:12.497Z,101369.72
2023-03-15T20:02:41.082Z,101366.91
2023-03-15T20:05:09.432Z,101376.97
2023-03-15T20:07:36.760Z,101380.31
2023-03-15T20:10:04.859Z,101378.38
2023-03-15T20:12:32.262Z,101388.28
2023-03-15T20:14:58.781Z,101382.16
2023-03-15T20:17:26.851Z,101394.19
2023-03-15T20:19:53.294Z,101393.31
2023-03-15T20:22:19.814Z,101398.31
2023-03-15T20:24:46.343Z,101397.31
2023-03-15T20:27:13.228Z,101401.66
2023-03-15T20:29:39.645Z,101403.22
2023-03-15T20:32:06.133Z,101404.09
2023-03-15T20:34:32.564Z,101399.59
2023-03-15T20:36:59.315Z,101399.38
2023-03-15T20:39:25.892Z,101415.53
2023-03-15T20:41:52.305Z,101408.41
2023-03-15T20:44:19.717Z,101410.72
2023-03-15T20:46:46.254Z,101411.50
2023-03-15T20:49:14.168Z,101415.47
2023-03-15T20:51:40.572Z,101417.16
2023-03-15T20:54:07.016Z,101419.59
2023-03-15T20:56:34.254Z,101415.91
2023-03-15T20:59:01.117Z,101427.59
2023-03-15T21:01:27.559Z,101425.81
2023-03-15T21:03:56.118Z,101429.66
2023-03-15T21:06:22.764Z,101429.53
2023-03-15T21:08:49.231Z,101434.56
2023-03-15T21:11:15.625Z,101438.78
2023-03-15T21:13:42.065Z,101442.78
2023-03-15T21:16:08.594Z,101441.22
2023-03-15T21:18:36.082Z,101437.00
2023-03-15T21:21:05.065Z,101441.22
2023-03-15T21:23:31.600Z,101437.78
2023-03-15T21:25:59.276Z,101430.63
2023-03-15T21:28:26.206Z,101433.81
2023-03-15T21:30:53.292Z,101434.47
2023-03-15T21:33:21.051Z,101439.38
2023-03-15T21:35:47.596Z,101448.97
2023-03-15T21:38:14.335Z,101441.06
2023-03-15T21:40:48.634Z,101447.84
2023-03-15T21:43:15.130Z,101448.63
2023-03-15T21:45:42.029Z,101448.38
2023-03-15T21:48:08.692Z,101443.81
2023-03-15T21:50:35.365Z,101457.09
2023-03-15T21:53:01.914Z,101454.19
2023-03-15T21:55:31.202Z,101449.72
2023-03-15T21:57:57.614Z,101454.56
2023-03-15T22:00:24.452Z,101457.91
2023-03-15T22:02:55.236Z,101464.97
2023-03-15T22:05:22.227Z,101462.66
2023-03-15T22:07:48.791Z,101466.66
2023-03-15T22:10:15.562Z,101463.84
2023-03-15T22:12:42.460Z,101457.59
2023-03-15T22:15:09.902Z,101460.28
2023-03-15T22:17:36.295Z,101459.88
2023-03-15T22:20:07.937Z,101458.50
2023-03-15T22:22:34.383Z,101453.38
2023-03-15T22:25:00.812Z,101456.31
2023-03-15T22:27:27.244Z,101457.06
2023-03-15T22:29:53.733Z,101467.19
2023-03-15T22:32:20.211Z,101463.47
2023-03-15T22:34:46.791Z,101458.25
2023-03-15T22:37:13.269Z,101470.28
2023-03-15T22:39:39.773Z,101468.47
2023-03-15T22:42:06.306Z,101479.72
2023-03-15T22:44:32.727Z,101469.09
2023-03-15T22:46:59.162Z,101472.41
2023-03-15T22:49:25.610Z,101473.31
2023-03-15T22:51:52.049Z,101472.41
2023-03-15T22:54:18.465Z,101482.28
2023-03-15T22:56:44.970Z,101483.06
2023-03-15T22:59:11.392Z,101484.84
2023-03-15T23:01:37.880Z,101483.94
2023-03-15T23:04:04.471Z,101486.75
2023-03-15T23:06:30.894Z,101490.22
2023-03-15T23:08:57.316Z,101486.63
2023-03-15T23:11:23.724Z,101490.84
2023-03-15T23:13:50.305Z,101493.94
2023-03-15T23:16:17.497Z,101492.78
2023-03-15T23:18:44.084Z,101486.50
2023-03-15T23:21:14.370Z,101488.94
2023-03-15T23:23:42.992Z,101494.81
2023-03-15T23:26:09.623Z,101488.69
2023-03-15T23:28:36.271Z,101494.56
2023-03-15T23:31:05.036Z,101498.66
2023-03-15T23:33:34.846Z,101496.75
2023-03-15T23:36:02.623Z,101496.88
2023-03-15T23:38:29.279Z,101495.34
2023-03-15T23:40:57.323Z,101495.34
2023-03-15T23:43:23.906Z,101496.88
2023-03-15T23:45:58.036Z,101497.78
2023-03-15T23:48:25.080Z,101503.78
2023-03-15T23:50:58.352Z,101508.59
2023-03-15T23:53:25.508Z,101506.22
2023-03-15T23:55:52.626Z,101505.81
2023-03-15T23:58:19.527Z,101509.78
